Latest Weather Observations for Morawa Airport

IDW60801

Issued at 9:05 pm WST Monday 20 October 2014 (issued every 30 minutes, with the page automatically refreshed every 10 minutes)

About weather observations | Map of weather stations | Latest weather observations for WA | Other Formats
Station Details ID: 008296 Name: MORAWA AIRPORT Lat: -29.20 Lon: 116.02 Height: 271.4 m
Data from the previous 72 hours. | See also: Recent months at Morawa Airport
Date/Time
WST
Temp
°C
App
Temp
°C
Dew
Point
Rel
Hum
%
Delta-T
°C
Wind Press
QNH
hPa
Press
MSL
hPa
Rain
since 9 am
mm
Dir
 
Spd
km/h
Gust
km/h
Spd
kts
Gust
kts
20/09:00pm 17.5 14.1 9.2 58 4.4 SSW 17 22 9 12 1020.7 1019.9 0.0
20/08:30pm 18.1 14.8 9.5 57 4.6 SSW 17 22 9 12 1020.5 1019.7 0.0
20/08:00pm 18.9 15.0 8.8 52 5.3 SSW 19 24 10 13 1020.2 1019.4 0.0
20/07:30pm 19.5 15.6 8.5 49 5.8 SW 19 24 10 13 1019.8 1019.0 0.0
20/07:00pm 20.3 16.2 8.6 47 6.2 SW 20 30 11 16 1019.1 1018.3 0.0
20/06:30pm 21.5 17.5 8.1 42 7.1 SW 19 28 10 15 1018.8 1018.0 0.0
20/06:00pm 23.0 19.0 6.7 35 8.5 SW 17 24 9 13 1018.5 1017.7 0.0
20/05:30pm 23.9 20.2 6.2 32 9.2 SW 15 24 8 13 1018.1 1017.3 0.0
20/05:00pm 24.5 20.1 6.7 32 9.3 S 19 28 10 15 1017.9 1017.0 0.0
20/04:30pm 24.4 20.8 6.6 32 9.3 SSW 15 24 8 13 1017.8 1016.9 0.0
20/04:00pm 24.6 22.2 6.8 32 9.4 SW 9 19 5 10 1017.5 1016.6 0.0
20/03:30pm 24.4 20.9 7.1 33 9.1 S 15 28 8 15 1017.5 1016.6 0.0
20/03:00pm 24.0 20.9 7.2 34 8.9 SSW 13 20 7 11 1017.6 1016.7 0.0
20/02:30pm 23.3 20.5 7.0 35 8.5 SSW 11 24 6 13 1017.6 1016.7 0.0
20/02:00pm 23.7 20.3 7.8 36 8.5 SSW 15 24 8 13 1017.8 1016.9 0.0
20/01:30pm 23.1 20.5 7.6 37 8.2 SW 11 22 6 12 1018.3 1017.5 0.0
20/01:00pm 22.2 18.4 7.6 39 7.7 SW 17 26 9 14 1018.5 1017.7 0.0
20/12:30pm 21.6 18.7 8.1 42 7.2 SSW 13 20 7 11 1018.7 1017.9 0.0
20/12:00pm 20.9 19.0 8.9 46 6.4 SW 9 26 5 14 1018.7 1017.9 0.0
20/11:30am 20.4 18.1 9.0 48 6.1 SW 11 19 6 10 1019.0 1018.2 0.0
20/11:00am 19.4 16.9 8.4 49 5.8 S 11 19 6 10 1019.3 1018.5 0.0
20/10:30am 18.9 16.2 8.8 52 5.3 S 13 20 7 11 1019.6 1018.8 0.0
20/10:00am 18.7 15.8 9.8 56 4.8 S 15 20 8 11 1019.8 1019.0 0.0
20/09:30am 18.0 15.2 9.9 59 4.3 S 15 20 8 11 1019.7 1018.9 0.0
20/09:00am 16.9 15.4 10.5 66 3.4 S 9 19 5 10 1019.9 1019.1 10.2
20/08:30am 15.7 14.2 10.5 71 2.8 S 9 17 5 9 1019.8 1019.0 10.2
20/08:00am 14.7 13.2 10.5 76 2.2 S 9 15 5 8 1019.7 1018.9 10.2
20/07:30am 14.0 13.0 12.4 90 0.9 S 9 13 5 7 1019.2 1018.4 10.2
20/07:00am 13.1 12.9 13.1 100 0.0 SSW 6 7 3 4 1018.9 1018.1 10.2
20/06:30am 12.0 11.9 12.0 100 0.0 SSW 4 6 2 3 1018.7 1017.9 10.2
20/06:00am 11.7 10.9 11.7 100 0.0 SW 7 9 4 5 1018.1 1017.3 10.2
20/05:30am 11.3 10.4 11.3 100 0.0 SW 7 9 4 5 1017.7 1016.8 10.2
20/05:00am 11.5 10.8 11.5 100 0.0 SW 6 7 3 4 1017.1 1016.3 10.2
20/04:30am 11.8 10.3 11.8 100 0.0 SW 11 15 6 8 1016.9 1016.1 10.2
20/04:00am 11.7 10.5 11.7 100 0.0 SW 9 13 5 7 1016.7 1015.9 10.2
20/03:30am 11.7 10.9 11.7 100 0.0 SW 7 9 4 5 1015.9 1015.1 10.2
20/03:00am 11.8 11.0 11.8 100 0.0 WSW 7 11 4 6 1015.9 1015.1 10.2
20/02:30am 11.9 11.4 11.9 100 0.0 WSW 6 9 3 5 1015.8 1015.0 10.2
20/02:00am 12.1 12.0 12.1 100 0.0 WSW 4 6 2 3 1015.6 1014.8 10.2
20/01:30am 12.2 12.0 11.9 98 0.2 WSW 4 7 2 4 1015.7 1014.9 10.2
20/01:00am 12.5 12.0 11.9 96 0.3 SW 6 9 3 5 1015.5 1014.7 10.2
20/12:30am 12.8 11.7 11.9 94 0.5 SW 9 11 5 6 1015.7 1014.9 10.2
20/12:00am 13.1 11.9 11.7 91 0.8 SW 9 13 5 7 1015.9 1015.1 10.2
 
Date/Time
WST
Temp
°C
App
Temp
°C
Dew
Point
Rel
Hum
%
Delta-T
°C
Wind Press
QNH
hPa
Press
MSL
hPa
Rain
since 9 am
mm
Dir
 
Spd
km/h
Gust
km/h
Spd
kts
Gust
kts
19/11:30pm 13.3 12.7 11.7 90 0.9 WSW 6 9 3 5 1016.0 1015.2 10.2
19/11:00pm 13.4 12.7 12.1 92 0.7 W 7 11 4 6 1016.5 1015.7 10.2
19/10:30pm 14.0 12.2 12.0 88 1.1 WSW 13 17 7 9 1016.4 1015.6 10.2
19/10:00pm 13.8 12.9 12.5 92 0.7 W 9 11 5 6 1016.5 1015.7 10.2
19/09:30pm 14.3 13.5 11.6 84 1.5 W 7 9 4 5 1016.4 1015.6 10.2
19/09:00pm 15.1 13.8 11.1 77 2.2 WSW 9 13 5 7 1016.3 1015.5 10.2
19/08:30pm 15.5 14.2 11.1 75 2.4 W 9 15 5 8 1016.0 1015.2 10.2
19/08:00pm 16.1 14.6 10.4 69 3.1 W 9 15 5 8 1015.7 1014.9 10.2
19/07:30pm 16.9 15.4 10.5 66 3.5 W 9 13 5 7 1015.3 1014.5 10.2
19/07:00pm 17.9 15.9 10.0 60 4.2 W 11 17 6 9 1014.7 1013.8 10.2
19/06:30pm 18.9 16.8 9.9 56 4.9 WSW 11 19 6 10 1014.2 1013.3 10.2
19/06:00pm 20.3 17.9 10.1 52 5.6 W 13 20 7 11 1013.8 1012.9 10.2
19/05:30pm 20.3 17.7 12.0 59 4.7 WNW 17 22 9 12 1013.5 1012.6 10.2
19/05:00pm 20.2 18.6 12.7 62 4.3 NW 13 19 7 10 1013.2 1012.4 10.2
19/04:30pm 18.7 17.4 13.6 72 2.9 NNW 13 17 7 9 1013.1 1012.3 10.2
19/04:00pm 15.9 11.8 13.9 88 1.1 WNW 28 44 15 24 1013.5 1012.6 9.8
19/03:52pm 16.4 12.8 12.9 80 2.0 WNW 24 44 13 24 1013.3 1012.5 7.0
19/03:30pm 21.4 18.7 11.7 54 5.5 WNW 17 24 9 13 1012.6 1011.8 4.8
19/03:00pm 20.0 18.2 12.0 60 4.5 WSW 13 19 7 10 1012.7 1011.9 4.8
19/02:30pm 17.6 15.5 12.3 71 3.0 SW 15 20 8 11 1013.1 1012.3 4.8
19/02:00pm 16.6 16.3 14.4 87 1.3 WSW 9 13 5 7 1013.3 1012.5 4.8
19/01:30pm 16.1 13.4 12.8 81 1.9 WSW 19 33 10 18 1013.7 1012.8 4.2
19/01:00pm 17.2 16.6 13.5 79 2.1 WSW 9 19 5 10 1013.5 1012.6 3.8
19/12:30pm 17.3 15.5 14.4 83 1.7 SSW 17 26 9 14 1013.2 1012.4 3.2
19/12:00pm 22.2 19.4 10.0 46 6.7 WNW 15 22 8 12 1012.6 1011.8 2.0
19/11:30am 21.4 20.2 12.8 58 5.0 N 11 19 6 10 1012.9 1012.1 2.0
19/11:00am 19.3 17.6 12.3 64 4.0 WNW 13 33 7 18 1013.5 1012.6 0.6
19/10:30am 21.7 19.2 9.6 46 6.6 NW 13 24 7 13 1013.6 1012.7 0.0
19/10:00am 21.8 19.3 9.7 46 6.6 NW 13 19 7 10 1013.8 1012.9 0.0
19/09:30am 20.3 18.5 11.0 55 5.2 NW 11 19 6 10 1014.0 1013.1 0.0
19/09:00am 19.1 17.9 11.7 62 4.1 WNW 9 19 5 10 1014.2 1013.3 1.2
19/08:30am 17.9 17.1 12.8 72 2.9 WNW 9 15 5 8 1014.2 1013.3 1.2
19/08:00am 17.3 16.6 14.2 82 1.8 W 11 15 6 8 1014.2 1013.3 1.2
19/07:30am 16.6 15.9 14.4 87 1.3 W 11 17 6 9 1014.1 1013.2 1.2
19/07:00am 15.9 15.6 14.4 91 0.9 WNW 9 13 5 7 1013.8 1012.9 1.2
19/06:30am 14.6 13.9 14.3 98 0.2 WNW 11 15 6 8 1013.7 1012.8 1.2
19/06:00am 13.6 13.0 13.6 100 0.0 WNW 9 13 5 7 1013.3 1012.5 1.2
19/05:30am 13.1 13.3 13.1 100 0.0 NW 4 9 2 5 1013.0 1012.2 1.2
19/05:00am 13.2 13.4 13.2 100 0.0 WNW 4 6 2 3 1012.7 1011.9 1.2
19/04:30am 13.8 13.9 13.8 100 0.0 WNW 6 7 3 4 1012.4 1011.6 1.2
19/04:00am 14.2 14.2 14.2 100 0.0 WNW 7 9 4 5 1012.4 1011.6 1.2
19/03:30am 14.5 14.6 14.5 100 0.0 W 7 9 4 5 1012.3 1011.5 1.2
19/03:00am 15.0 15.5 15.0 100 0.0 W 6 7 3 4 1012.5 1011.7 1.2
19/02:30am 14.9 15.4 14.9 100 0.0 W 6 7 3 4 1012.3 1011.5 1.2
19/02:00am 15.3 16.3 15.3 100 0.0 WSW 4 7 2 4 1012.2 1011.4 1.2
19/01:30am 15.2 16.0 14.7 97 0.3 WSW 4 4 2 2 1012.3 1011.5 1.2
19/01:00am 15.5 16.3 14.7 95 0.5 WSW 4 7 2 4 1012.3 1011.5 1.2
19/12:30am 15.7 15.1 14.7 94 0.6 S 11 17 6 9 1012.3 1011.5 1.2
19/12:00am 15.4 15.6 14.8 96 0.3 S 7 9 4 5 1012.8 1012.0 1.2
 
Date/Time
WST
Temp
°C
App
Temp
°C
Dew
Point
Rel
Hum
%
Delta-T
°C
Wind Press
QNH
hPa
Press
MSL
hPa
Rain
since 9 am
mm
Dir
 
Spd
km/h
Gust
km/h
Spd
kts
Gust
kts
18/11:30pm 15.9 15.9 14.3 90 0.9 WSW 7 9 4 5 1013.9 1013.0 1.2
18/11:00pm 16.0 15.5 14.9 93 0.6 S 11 15 6 8 1013.0 1012.2 1.2
18/10:30pm 15.9 15.7 13.7 87 1.3 SSE 7 11 4 6 1013.6 1012.7 1.2
18/10:00pm 16.2 15.7 13.9 86 1.3 S 9 13 5 7 1013.8 1012.9 0.8
18/09:30pm 17.0 16.1 12.7 76 2.4 WSW 9 13 5 7 1014.4 1013.5 0.4
18/09:00pm 17.0 15.7 12.5 75 2.5 WSW 11 17 6 9 1013.2 1012.4 0.4
18/08:30pm 17.9 14.7 11.2 65 3.7 W 19 24 10 13 1013.6 1012.7 0.2
18/08:00pm 19.1 15.3 9.9 55 5.0 WSW 20 30 11 16 1013.5 1012.6 0.2
18/07:30pm 19.8 17.0 10.0 53 5.3 W 15 22 8 12 1013.6 1012.7 0.2
18/07:00pm 18.6 18.4 13.0 70 3.2 NW 6 9 3 5 1013.6 1012.7 0.2
18/06:30pm 19.4 18.8 12.2 63 4.1 NNW 7 11 4 6 1013.2 1012.4 0.2
18/06:00pm 21.3 17.5 9.2 46 6.5 W 19 24 10 13 1012.8 1012.0 0.0
18/05:30pm 22.3 17.5 7.3 38 7.9 W 22 30 12 16 1011.7 1010.9 0.0
18/05:00pm 23.1 18.7 7.2 36 8.4 WSW 20 32 11 17 1011.4 1010.5 0.0
18/04:30pm 23.4 19.2 7.5 36 8.4 W 19 26 10 14 1011.3 1010.4 0.0
18/04:00pm 24.2 19.0 7.4 34 8.9 W 24 35 13 19 1010.9 1010.0 0.0
18/03:30pm 24.7 19.6 7.8 34 9.1 W 24 35 13 19 1010.7 1009.8 0.0
18/03:00pm 24.5 20.6 8.5 36 8.7 WSW 19 32 10 17 1010.7 1009.8 0.0
18/02:30pm 24.9 20.8 8.8 36 8.8 WNW 20 35 11 19 1010.7 1009.8 0.0
18/02:00pm 25.5 20.8 9.3 36 9.0 W 24 39 13 21 1010.9 1010.0 0.0
18/01:30pm 25.8 20.9 8.3 33 9.5 W 24 33 13 18 1010.9 1010.0 0.0
18/01:00pm 25.1 20.6 8.6 35 9.0 W 22 33 12 18 1011.0 1010.1 0.0
18/12:30pm 24.3 20.0 9.5 39 8.2 W 22 32 12 17 1011.3 1010.4 0.0
18/12:00pm 24.3 21.4 9.5 39 8.2 WNW 15 26 8 14 1011.4 1010.5 0.0
18/11:30am 24.1 20.5 10.7 43 7.5 NW 20 32 11 17 1011.9 1011.1 0.0
18/11:00am 22.8 19.9 10.9 47 6.7 W 17 24 9 13 1012.1 1011.3 0.0
18/10:30am 23.0 21.0 11.4 48 6.6 WNW 13 22 7 12 1012.2 1011.4 0.0
18/10:00am 21.4 18.7 11.7 54 5.5 W 17 26 9 14 1012.4 1011.6 0.0
18/09:30am 20.3 17.6 12.8 62 4.3 WNW 19 26 10 14 1012.5 1011.7 0.0
18/09:00am 19.6 17.3 13.1 66 3.7 WNW 17 26 9 14 1012.5 1011.7 0.0
18/08:30am 18.5 17.2 13.8 74 2.7 W 13 22 7 12 1012.4 1011.6 0.0
18/08:00am 16.9 14.5 13.8 82 1.8 W 19 26 10 14 1012.0 1011.2 0.0
18/07:30am 16.6 14.7 12.9 79 2.1 WNW 15 20 8 11 1011.7 1010.9 0.0
18/07:00am 15.7 14.3 13.4 86 1.3 NW 13 20 7 11 1011.4 1010.5 0.0
18/06:30am 14.2 13.3 13.6 96 0.3 NNW 11 17 6 9 1011.2 1010.3 0.0
18/06:00am 13.6 12.5 13.1 97 0.3 NW 11 19 6 10 1010.8 1009.9 0.0
18/05:30am 13.7 13.5 13.7 100 0.0 WNW 7 13 4 7 1010.5 1009.6 0.0
18/05:00am 13.9 13.9 13.7 99 0.1 WNW 6 9 3 5 1010.1 1009.2 0.0
18/04:30am 14.2 13.7 13.9 98 0.2 W 9 13 5 7 1010.0 1009.1 0.0
18/04:00am 14.6 13.8 14.1 97 0.3 WNW 11 15 6 8 1009.8 1008.9 0.0
18/03:30am 15.0 14.2 14.0 94 0.6 W 11 15 6 8 1009.5 1008.7 0.0
18/03:00am 15.6 14.1 14.1 91 0.9 W 15 19 8 10 1009.4 1008.6 0.0
18/02:30am 16.5 15.4 14.2 86 1.3 W 13 19 7 10 1009.5 1008.7 0.0
18/02:00am 17.5 16.6 13.8 79 2.1 W 11 17 6 9 1009.3 1008.5 0.0
18/01:30am 18.7 17.8 12.5 67 3.5 W 9 15 5 8 1009.5 1008.7 0.0
18/01:00am 19.0 17.7 12.5 66 3.7 W 11 15 6 8 1009.5 1008.7 0.0
18/12:30am 19.1 17.8 12.6 66 3.7 SW 11 17 6 9 1009.3 1008.5 0.0
18/12:00am 19.7 17.4 12.9 65 3.9 SW 17 28 9 15 1009.3 1008.5 0.0
 
Date/Time
WST
Temp
°C
App
Temp
°C
Dew
Point
Rel
Hum
%
Delta-T
°C
Wind Press
QNH
hPa
Press
MSL
hPa
Rain
since 9 am
mm
Dir
 
Spd
km/h
Gust
km/h
Spd
kts
Gust
kts
17/11:30pm 20.5 18.6 13.0 62 4.3 WSW 15 20 8 11 1009.9 1009.0 0.0
17/11:00pm 21.4 19.5 13.1 59 4.8 W 15 20 8 11 1010.1 1009.2 0.0
17/10:30pm 22.6 19.7 12.3 52 5.9 WSW 19 32 10 17 1010.0 1009.1 0.0
17/10:00pm 23.8 21.6 10.8 44 7.3 SW 13 20 7 11 1010.0 1009.1 0.0
17/09:30pm 24.2 21.9 10.5 42 7.7 SSW 13 19 7 10 1009.7 1008.8 0.0

Other Formats:

Comma delimited format used in spreadsheet applications
http://www.bom.gov.au/fwo/IDW60801/IDW60801.94417.axf

JavaScript Object Notation format (JSON) in row-major order
http://www.bom.gov.au/fwo/IDW60801/IDW60801.94417.json